sensor_id;sensor_type;location;lat;lon;timestamp;temperature;humidity
32769;DHT22;23049;54.304;8.826;2023-04-21T00:00:58;8.20;99.90
32769;DHT22;23049;54.304;8.826;2023-04-21T00:03:24;8.10;99.90
32769;DHT22;23049;54.304;8.826;2023-04-21T00:05:50;8.00;99.90
32769;DHT22;23049;54.304;8.826;2023-04-21T00:08:15;8.00;99.90
32769;DHT22;23049;54.304;8.826;2023-04-21T00:10:41;8.10;99.90
32769;DHT22;23049;54.304;8.826;2023-04-21T00:13:07;8.00;99.90
32769;DHT22;23049;54.304;8.826;2023-04-21T00:15:33;7.90;99.90
32769;DHT22;23049;54.304;8.826;2023-04-21T00:17:59;7.90;99.90
32769;DHT22;23049;54.304;8.826;2023-04-21T00:20:25;8.00;99.90
32769;DHT22;23049;54.304;8.826;2023-04-21T00:22:53;7.90;99.90
32769;DHT22;23049;54.304;8.826;2023-04-21T00:25:19;7.90;99.90
32769;DHT22;23049;54.304;8.826;2023-04-21T00:27:44;7.90;99.90
32769;DHT22;23049;54.304;8.826;2023-04-21T00:30:10;8.00;99.90
32769;DHT22;23049;54.304;8.826;2023-04-21T00:32:36;7.90;99.90
32769;DHT22;23049;54.304;8.826;2023-04-21T00:35:01;7.90;99.90
32769;DHT22;23049;54.304;8.826;2023-04-21T00:37:27;7.90;99.90
32769;DHT22;23049;54.304;8.826;2023-04-21T00:39:53;7.80;99.90
32769;DHT22;23049;54.304;8.826;2023-04-21T00:42:18;7.90;99.90
32769;DHT22;23049;54.304;8.826;2023-04-21T00:44:44;7.90;99.90
32769;DHT22;23049;54.304;8.826;2023-04-21T00:47:09;7.90;99.90
32769;DHT22;23049;54.304;8.826;2023-04-21T00:49:35;7.80;99.90
32769;DHT22;23049;54.304;8.826;2023-04-21T00:52:03;7.90;99.90
32769;DHT22;23049;54.304;8.826;2023-04-21T00:54:28;7.90;99.90
32769;DHT22;23049;54.304;8.826;2023-04-21T00:56:54;7.80;99.90
32769;DHT22;23049;54.304;8.826;2023-04-21T00:59:19;7.80;99.90
32769;DHT22;23049;54.304;8.826;2023-04-21T02:08:42;7.70;99.90
32769;DHT22;23049;54.304;8.826;2023-04-21T02:11:07;7.70;99.90
32769;DHT22;23049;54.304;8.826;2023-04-21T02:13:33;7.60;99.90
32769;DHT22;23049;54.304;8.826;2023-04-21T02:15:58;7.70;99.90
32769;DHT22;23049;54.304;8.826;2023-04-21T02:18:24;7.70;99.90
32769;DHT22;23049;54.304;8.826;2023-04-21T02:20:50;7.70;99.90
32769;DHT22;23049;54.304;8.826;2023-04-21T02:23:16;7.70;99.90
32769;DHT22;23049;54.304;8.826;2023-04-21T02:25:41;7.60;99.90
32769;DHT22;23049;54.304;8.826;2023-04-21T02:28:07;7.60;99.90
32769;DHT22;23049;54.304;8.826;2023-04-21T02:30:33;7.60;99.90
32769;DHT22;23049;54.304;8.826;2023-04-21T02:32:59;7.70;99.90
32769;DHT22;23049;54.304;8.826;2023-04-21T02:35:25;7.70;99.90
32769;DHT22;23049;54.304;8.826;2023-04-21T02:37:50;7.70;99.90
32769;DHT22;23049;54.304;8.826;2023-04-21T02:40:15;7.70;99.90
32769;DHT22;23049;54.304;8.826;2023-04-21T02:42:41;7.70;99.90
32769;DHT22;23049;54.304;8.826;2023-04-21T02:45:07;7.70;99.90
32769;DHT22;23049;54.304;8.826;2023-04-21T02:47:32;7.70;99.90
32769;DHT22;23049;54.304;8.826;2023-04-21T02:49:58;7.70;99.90
32769;DHT22;23049;54.304;8.826;2023-04-21T02:52:23;7.70;99.90
32769;DHT22;23049;54.304;8.826;2023-04-21T02:54:49;7.80;99.90
32769;DHT22;23049;54.304;8.826;2023-04-21T02:57:14;7.80;99.90
32769;DHT22;23049;54.304;8.826;2023-04-21T02:59:40;7.70;99.90
32769;DHT22;23049;54.304;8.826;2023-04-21T03:02:05;7.70;99.90
32769;DHT22;23049;54.304;8.826;2023-04-21T03:04:31;7.70;99.90
32769;DHT22;23049;54.304;8.826;2023-04-21T03:06:58;7.70;99.90
32769;DHT22;23049;54.304;8.826;2023-04-21T03:09:23;7.70;99.90
32769;DHT22;23049;54.304;8.826;2023-04-21T03:11:49;7.60;99.90
32769;DHT22;23049;54.304;8.826;2023-04-21T03:14:14;7.60;99.90
32769;DHT22;23049;54.304;8.826;2023-04-21T03:16:40;7.60;99.90
32769;DHT22;23049;54.304;8.826;2023-04-21T03:19:05;7.60;99.90
32769;DHT22;23049;54.304;8.826;2023-04-21T03:21:31;7.60;99.90
32769;DHT22;23049;54.304;8.826;2023-04-21T03:23:56;7.60;99.90
32769;DHT22;23049;54.304;8.826;2023-04-21T03:26:22;7.60;99.90
32769;DHT22;23049;54.304;8.826;2023-04-21T03:28:47;7.60;99.90
32769;DHT22;23049;54.304;8.826;2023-04-21T03:31:13;7.60;99.90
32769;DHT22;23049;54.304;8.826;2023-04-21T03:33:39;7.50;99.90
32769;DHT22;23049;54.304;8.826;2023-04-21T03:36:05;7.60;99.90
32769;DHT22;23049;54.304;8.826;2023-04-21T03:38:31;7.60;99.90
32769;DHT22;23049;54.304;8.826;2023-04-21T03:40:56;7.50;99.90
32769;DHT22;23049;54.304;8.826;2023-04-21T03:43:21;7.50;99.90
32769;DHT22;23049;54.304;8.826;2023-04-21T03:45:47;7.50;99.90
32769;DHT22;23049;54.304;8.826;2023-04-21T03:48:13;7.50;99.90
32769;DHT22;23049;54.304;8.826;2023-04-21T03:50:38;7.50;99.90
32769;DHT22;23049;54.304;8.826;2023-04-21T03:53:04;7.40;99.90
32769;DHT22;23049;54.304;8.826;2023-04-21T03:55:29;7.40;99.90
32769;DHT22;23049;54.304;8.826;2023-04-21T03:57:55;7.30;99.90
32769;DHT22;23049;54.304;8.826;2023-04-21T04:00:20;7.30;99.90
32769;DHT22;23049;54.304;8.826;2023-04-21T04:02:46;7.40;99.90
32769;DHT22;23049;54.304;8.826;2023-04-21T04:05:11;7.40;99.90
32769;DHT22;23049;54.304;8.826;2023-04-21T04:07:37;7.40;99.90
32769;DHT22;23049;54.304;8.826;2023-04-21T04:10:02;7.40;99.90
32769;DHT22;23049;54.304;8.826;2023-04-21T04:12:28;7.40;99.90
32769;DHT22;23049;54.304;8.826;2023-04-21T04:14:54;7.40;99.90
32769;DHT22;23049;54.304;8.826;2023-04-21T04:17:19;7.40;99.90
32769;DHT22;23049;54.304;8.826;2023-04-21T04:19:45;7.40;99.90
32769;DHT22;23049;54.304;8.826;2023-04-21T04:22:10;7.40;99.90
32769;DHT22;23049;54.304;8.826;2023-04-21T04:24:36;7.40;99.90
32769;DHT22;23049;54.304;8.826;2023-04-21T04:27:01;7.40;99.90
32769;DHT22;23049;54.304;8.826;2023-04-21T04:29:27;7.50;99.90
32769;DHT22;23049;54.304;8.826;2023-04-21T04:31:53;7.40;99.90
32769;DHT22;23049;54.304;8.826;2023-04-21T04:34:19;7.60;99.90
32769;DHT22;23049;54.304;8.826;2023-04-21T04:36:45;7.60;99.90
32769;DHT22;23049;54.304;8.826;2023-04-21T04:39:10;7.70;99.90
32769;DHT22;23049;54.304;8.826;2023-04-21T04:41:36;7.80;99.90
32769;DHT22;23049;54.304;8.826;2023-04-21T04:44:02;7.90;99.90
32769;DHT22;23049;54.304;8.826;2023-04-21T04:46:32;7.90;99.90
32769;DHT22;23049;54.304;8.826;2023-04-21T04:48:58;8.00;99.90
32769;DHT22;23049;54.304;8.826;2023-04-21T04:51:24;8.00;99.90
32769;DHT22;23049;54.304;8.826;2023-04-21T04:53:50;8.10;99.90
32769;DHT22;23049;54.304;8.826;2023-04-21T04:56:15;8.20;99.90
32769;DHT22;23049;54.304;8.826;2023-04-21T04:58:41;8.30;99.90
32769;DHT22;23049;54.304;8.826;2023-04-21T05:01:12;8.40;99.90
32769;DHT22;23049;54.304;8.826;2023-04-21T05:03:38;8.50;99.90
32769;DHT22;23049;54.304;8.826;2023-04-21T05:06:03;8.70;99.90
32769;DHT22;23049;54.304;8.826;2023-04-21T05:08:29;8.80;99.90
32769;DHT22;23049;54.304;8.826;2023-04-21T05:10:54;8.80;99.90
32769;DHT22;23049;54.304;8.826;2023-04-21T05:13:20;8.80;99.90
32769;DHT22;23049;54.304;8.826;2023-04-21T05:15:45;8.80;99.90
32769;DHT22;23049;54.304;8.826;2023-04-21T05:18:11;9.00;99.90
32769;DHT22;23049;54.304;8.826;2023-04-21T05:20:39;9.10;99.90
32769;DHT22;23049;54.304;8.826;2023-04-21T05:23:05;9.00;99.90
32769;DHT22;23049;54.304;8.826;2023-04-21T05:25:30;9.30;99.90
32769;DHT22;23049;54.304;8.826;2023-04-21T05:27:56;9.50;99.90
32769;DHT22;23049;54.304;8.826;2023-04-21T05:30:21;9.80;99.90
32769;DHT22;23049;54.304;8.826;2023-04-21T05:32:47;10.00;99.90
32769;DHT22;23049;54.304;8.826;2023-04-21T05:35:12;10.20;99.90
32769;DHT22;23049;54.304;8.826;2023-04-21T05:37:38;10.40;99.90
32769;DHT22;23049;54.304;8.826;2023-04-21T05:40:03;10.50;99.90
32769;DHT22;23049;54.304;8.826;2023-04-21T05:42:29;10.50;99.90
32769;DHT22;23049;54.304;8.826;2023-04-21T05:44:55;10.70;99.90
32769;DHT22;23049;54.304;8.826;2023-04-21T05:47:20;10.50;99.90
32769;DHT22;23049;54.304;8.826;2023-04-21T05:49:46;10.80;99.90
32769;DHT22;23049;54.304;8.826;2023-04-21T05:52:14;10.70;99.90
32769;DHT22;23049;54.304;8.826;2023-04-21T05:54:40;11.00;99.90
32769;DHT22;23049;54.304;8.826;2023-04-21T05:57:06;11.30;99.90
32769;DHT22;23049;54.304;8.826;2023-04-21T05:59:32;11.00;99.90
32769;DHT22;23049;54.304;8.826;2023-04-21T06:01:58;11.10;99.90
32769;DHT22;23049;54.304;8.826;2023-04-21T06:04:23;11.10;99.90
32769;DHT22;23049;54.304;8.826;2023-04-21T06:06:49;11.30;99.90
32769;DHT22;23049;54.304;8.826;2023-04-21T06:09:14;11.30;99.90
32769;DHT22;23049;54.304;8.826;2023-04-21T06:11:40;11.30;99.90
32769;DHT22;23049;54.304;8.826;2023-04-21T06:14:06;11.60;99.90
32769;DHT22;23049;54.304;8.826;2023-04-21T06:16:31;11.60;99.90
32769;DHT22;23049;54.304;8.826;2023-04-21T06:18:58;11.50;99.90
32769;DHT22;23049;54.304;8.826;2023-04-21T06:21:24;11.40;99.90
32769;DHT22;23049;54.304;8.826;2023-04-21T06:23:49;11.60;99.90
32769;DHT22;23049;54.304;8.826;2023-04-21T06:26:15;11.60;99.90
32769;DHT22;23049;54.304;8.826;2023-04-21T06:28:41;11.40;99.90
32769;DHT22;23049;54.304;8.826;2023-04-21T06:31:06;11.30;99.90
32769;DHT22;23049;54.304;8.826;2023-04-21T06:33:33;11.10;99.90
32769;DHT22;23049;54.304;8.826;2023-04-21T06:35:59;11.10;99.90
32769;DHT22;23049;54.304;8.826;2023-04-21T06:38:25;11.10;99.90
32769;DHT22;23049;54.304;8.826;2023-04-21T06:40:50;11.20;99.90
32769;DHT22;23049;54.304;8.826;2023-04-21T06:43:16;11.40;99.90
32769;DHT22;23049;54.304;8.826;2023-04-21T06:45:41;11.50;99.90
32769;DHT22;23049;54.304;8.826;2023-04-21T06:48:07;11.50;99.90
32769;DHT22;23049;54.304;8.826;2023-04-21T06:50:32;11.40;99.90
32769;DHT22;23049;54.304;8.826;2023-04-21T06:52:58;11.60;99.90
32769;DHT22;23049;54.304;8.826;2023-04-21T06:55:23;11.50;99.90
32769;DHT22;23049;54.304;8.826;2023-04-21T06:57:49;11.70;99.90
32769;DHT22;23049;54.304;8.826;2023-04-21T07:00:14;11.80;99.90
32769;DHT22;23049;54.304;8.826;2023-04-21T07:02:40;11.80;99.90
32769;DHT22;23049;54.304;8.826;2023-04-21T07:05:06;11.80;99.90
32769;DHT22;23049;54.304;8.826;2023-04-21T07:07:31;11.70;99.90
32769;DHT22;23049;54.304;8.826;2023-04-21T07:09:57;11.90;99.90
32769;DHT22;23049;54.304;8.826;2023-04-21T07:12:22;11.90;99.90
32769;DHT22;23049;54.304;8.826;2023-04-21T07:14:48;11.80;99.90
32769;DHT22;23049;54.304;8.826;2023-04-21T07:17:13;11.90;99.90
32769;DHT22;23049;54.304;8.826;2023-04-21T07:19:39;12.10;99.90
32769;DHT22;23049;54.304;8.826;2023-04-21T07:22:05;12.40;99.90
32769;DHT22;23049;54.304;8.826;2023-04-21T07:24:30;12.40;99.90
32769;DHT22;23049;54.304;8.826;2023-04-21T07:26:58;12.40;99.90
32769;DHT22;23049;54.304;8.826;2023-04-21T07:29:24;12.20;99.90
32769;DHT22;23049;54.304;8.826;2023-04-21T07:31:49;12.30;99.90
32769;DHT22;23049;54.304;8.826;2023-04-21T07:34:16;12.10;99.90
32769;DHT22;23049;54.304;8.826;2023-04-21T07:36:41;12.20;99.90
32769;DHT22;23049;54.304;8.826;2023-04-21T07:39:07;12.20;99.90
32769;DHT22;23049;54.304;8.826;2023-04-21T07:41:32;12.20;99.90
32769;DHT22;23049;54.304;8.826;2023-04-21T07:43:58;12.20;99.90
32769;DHT22;23049;54.304;8.826;2023-04-21T07:46:23;12.40;99.90
32769;DHT22;23049;54.304;8.826;2023-04-21T07:48:57;12.50;99.90
32769;DHT22;23049;54.304;8.826;2023-04-21T07:51:23;12.30;99.90
32769;DHT22;23049;54.304;8.826;2023-04-21T07:53:49;12.40;99.90
32769;DHT22;23049;54.304;8.826;2023-04-21T07:56:15;12.50;99.90
32769;DHT22;23049;54.304;8.826;2023-04-21T07:58:41;12.40;99.90
32769;DHT22;23049;54.304;8.826;2023-04-21T08:01:06;12.50;99.90
32769;DHT22;23049;54.304;8.826;2023-04-21T08:03:32;12.40;99.90
32769;DHT22;23049;54.304;8.826;2023-04-21T08:05:57;12.70;99.90
32769;DHT22;23049;54.304;8.826;2023-04-21T08:08:23;12.70;99.90
32769;DHT22;23049;54.304;8.826;2023-04-21T08:10:48;12.80;99.90
32769;DHT22;23049;54.304;8.826;2023-04-21T08:13:14;12.90;99.90
32769;DHT22;23049;54.304;8.826;2023-04-21T08:15:39;12.80;99.90
32769;DHT22;23049;54.304;8.826;2023-04-21T08:18:05;12.70;99.90
32769;DHT22;23049;54.304;8.826;2023-04-21T08:20:30;12.90;99.90
32769;DHT22;23049;54.304;8.826;2023-04-21T08:22:56;12.90;99.90
32769;DHT22;23049;54.304;8.826;2023-04-21T08:25:22;12.90;99.90
32769;DHT22;23049;54.304;8.826;2023-04-21T08:27:47;12.90;99.90
32769;DHT22;23049;54.304;8.826;2023-04-21T08:30:13;13.00;99.90
32769;DHT22;23049;54.304;8.826;2023-04-21T08:32:39;13.00;99.90
32769;DHT22;23049;54.304;8.826;2023-04-21T08:35:05;13.30;99.90
32769;DHT22;23049;54.304;8.826;2023-04-21T08:37:30;13.30;99.90
32769;DHT22;23049;54.304;8.826;2023-04-21T08:39:56;13.30;99.90
32769;DHT22;23049;54.304;8.826;2023-04-21T08:42:21;13.30;99.90
32769;DHT22;23049;54.304;8.826;2023-04-21T08:44:47;13.40;99.90
32769;DHT22;23049;54.304;8.826;2023-04-21T08:47:13;13.40;99.90
32769;DHT22;23049;54.304;8.826;2023-04-21T08:49:39;13.30;99.90
32769;DHT22;23049;54.304;8.826;2023-04-21T08:52:05;13.50;99.90
32769;DHT22;23049;54.304;8.826;2023-04-21T08:54:32;13.50;99.90
32769;DHT22;23049;54.304;8.826;2023-04-21T08:56:57;13.40;99.90
32769;DHT22;23049;54.304;8.826;2023-04-21T08:59:23;13.60;99.90
32769;DHT22;23049;54.304;8.826;2023-04-21T09:02:05;13.60;99.90
32769;DHT22;23049;54.304;8.826;2023-04-21T09:04:30;13.80;99.90
32769;DHT22;23049;54.304;8.826;2023-04-21T09:06:56;14.00;99.90
32769;DHT22;23049;54.304;8.826;2023-04-21T09:09:21;14.10;99.90
32769;DHT22;23049;54.304;8.826;2023-04-21T09:11:54;14.00;99.90
32769;DHT22;23049;54.304;8.826;2023-04-21T09:14:21;14.00;99.90
32769;DHT22;23049;54.304;8.826;2023-04-21T09:16:47;14.20;99.90
32769;DHT22;23049;54.304;8.826;2023-04-21T09:19:25;14.20;99.90
32769;DHT22;23049;54.304;8.826;2023-04-21T09:21:50;14.30;99.90
32769;DHT22;23049;54.304;8.826;2023-04-21T09:24:16;14.50;99.90
32769;DHT22;23049;54.304;8.826;2023-04-21T09:26:42;14.50;99.90
32769;DHT22;23049;54.304;8.826;2023-04-21T09:29:07;14.50;99.90
32769;DHT22;23049;54.304;8.826;2023-04-21T09:31:33;14.60;99.90
32769;DHT22;23049;54.304;8.826;2023-04-21T09:33:59;14.50;99.90
32769;DHT22;23049;54.304;8.826;2023-04-21T09:36:26;14.70;99.90
32769;DHT22;23049;54.304;8.826;2023-04-21T09:38:55;14.70;99.90
32769;DHT22;23049;54.304;8.826;2023-04-21T09:41:22;14.70;99.90
32769;DHT22;23049;54.304;8.826;2023-04-21T09:43:47;14.90;99.90
32769;DHT22;23049;54.304;8.826;2023-04-21T09:46:16;14.90;99.90
32769;DHT22;23049;54.304;8.826;2023-04-21T09:48:43;14.90;99.90
32769;DHT22;23049;54.304;8.826;2023-04-21T09:51:09;15.00;99.90
32769;DHT22;23049;54.304;8.826;2023-04-21T09:53:35;14.90;99.90
32769;DHT22;23049;54.304;8.826;2023-04-21T09:56:02;14.90;99.90
32769;DHT22;23049;54.304;8.826;2023-04-21T09:58:29;14.90;99.90
32769;DHT22;23049;54.304;8.826;2023-04-21T10:00:56;14.80;99.90
32769;DHT22;23049;54.304;8.826;2023-04-21T10:03:22;14.80;99.90
32769;DHT22;23049;54.304;8.826;2023-04-21T10:05:51;14.80;99.90
32769;DHT22;23049;54.304;8.826;2023-04-21T10:08:16;15.00;99.90
32769;DHT22;23049;54.304;8.826;2023-04-21T10:10:43;15.20;99.90
32769;DHT22;23049;54.304;8.826;2023-04-21T10:13:13;15.20;99.90
32769;DHT22;23049;54.304;8.826;2023-04-21T10:15:40;15.10;99.90
32769;DHT22;23049;54.304;8.826;2023-04-21T10:18:19;15.20;99.90
32769;DHT22;23049;54.304;8.826;2023-04-21T10:20:49;15.30;99.90
32769;DHT22;23049;54.304;8.826;2023-04-21T10:23:28;15.30;99.90
32769;DHT22;23049;54.304;8.826;2023-04-21T10:25:59;15.30;99.90
32769;DHT22;23049;54.304;8.826;2023-04-21T10:28:37;15.40;99.90
32769;DHT22;23049;54.304;8.826;2023-04-21T10:33:41;15.40;99.90
32769;DHT22;23049;54.304;8.826;2023-04-21T10:36:09;15.60;99.90
32769;DHT22;23049;54.304;8.826;2023-04-21T10:38:39;15.60;99.90
32769;DHT22;23049;54.304;8.826;2023-04-21T10:43:50;15.70;99.90
32769;DHT22;23049;54.304;8.826;2023-04-21T10:46:34;15.70;99.90
32769;DHT22;23049;54.304;8.826;2023-04-21T10:49:03;16.00;99.90
32769;DHT22;23049;54.304;8.826;2023-04-21T10:51:29;16.10;99.90
32769;DHT22;23049;54.304;8.826;2023-04-21T10:53:57;16.10;99.90
32769;DHT22;23049;54.304;8.826;2023-04-21T10:56:22;16.00;99.90
32769;DHT22;23049;54.304;8.826;2023-04-21T10:58:49;16.20;99.90
32769;DHT22;23049;54.304;8.826;2023-04-21T11:01:16;16.10;99.90
32769;DHT22;23049;54.304;8.826;2023-04-21T11:03:41;16.20;99.90
32769;DHT22;23049;54.304;8.826;2023-04-21T11:06:16;16.20;99.90
32769;DHT22;23049;54.304;8.826;2023-04-21T11:08:55;16.20;99.90
32769;DHT22;23049;54.304;8.826;2023-04-21T11:11:21;16.10;99.90
32769;DHT22;23049;54.304;8.826;2023-04-21T11:13:48;16.10;99.90
32769;DHT22;23049;54.304;8.826;2023-04-21T11:16:13;16.10;99.90
32769;DHT22;23049;54.304;8.826;2023-04-21T11:18:40;16.10;99.90
32769;DHT22;23049;54.304;8.826;2023-04-21T11:21:06;16.20;99.90
32769;DHT22;23049;54.304;8.826;2023-04-21T11:23:32;16.10;99.90
32769;DHT22;23049;54.304;8.826;2023-04-21T11:25:58;16.10;99.90
32769;DHT22;23049;54.304;8.826;2023-04-21T11:28:23;16.30;99.90
32769;DHT22;23049;54.304;8.826;2023-04-21T11:30:49;16.20;99.90
32769;DHT22;23049;54.304;8.826;2023-04-21T11:33:14;16.40;99.90
32769;DHT22;23049;54.304;8.826;2023-04-21T11:35:40;16.20;99.90
32769;DHT22;23049;54.304;8.826;2023-04-21T11:38:06;16.30;99.90
32769;DHT22;23049;54.304;8.826;2023-04-21T11:40:44;16.50;99.90
32769;DHT22;23049;54.304;8.826;2023-04-21T11:43:10;16.60;99.90
32769;DHT22;23049;54.304;8.826;2023-04-21T11:45:36;16.50;99.90
32769;DHT22;23049;54.304;8.826;2023-04-21T11:48:14;16.50;99.90
32769;DHT22;23049;54.304;8.826;2023-04-21T11:50:45;16.60;99.90
32769;DHT22;23049;54.304;8.826;2023-04-21T11:53:10;16.60;99.90
32769;DHT22;23049;54.304;8.826;2023-04-21T11:55:40;16.70;99.90
32769;DHT22;23049;54.304;8.826;2023-04-21T11:58:06;16.60;99.90
32769;DHT22;23049;54.304;8.826;2023-04-21T12:00:31;16.80;99.90
32769;DHT22;23049;54.304;8.826;2023-04-21T12:02:57;16.80;99.90
32769;DHT22;23049;54.304;8.826;2023-04-21T12:05:23;16.60;99.90
32769;DHT22;23049;54.304;8.826;2023-04-21T12:07:48;16.60;99.90
32769;DHT22;23049;54.304;8.826;2023-04-21T12:10:17;16.60;99.90
32769;DHT22;23049;54.304;8.826;2023-04-21T12:12:43;16.70;99.90
32769;DHT22;23049;54.304;8.826;2023-04-21T12:15:09;16.60;99.90
32769;DHT22;23049;54.304;8.826;2023-04-21T12:17:36;16.60;99.90
32769;DHT22;23049;54.304;8.826;2023-04-21T12:20:05;16.60;99.90
32769;DHT22;23049;54.304;8.826;2023-04-21T12:22:31;16.90;99.90
32769;DHT22;23049;54.304;8.826;2023-04-21T12:24:57;16.90;99.90
32769;DHT22;23049;54.304;8.826;2023-04-21T12:27:23;16.60;99.90
32769;DHT22;23049;54.304;8.826;2023-04-21T12:29:48;16.60;99.90
32769;DHT22;23049;54.304;8.826;2023-04-21T12:32:14;16.40;99.90
32769;DHT22;23049;54.304;8.826;2023-04-21T12:34:39;16.50;99.90
32769;DHT22;23049;54.304;8.826;2023-04-21T12:37:05;16.50;99.90
32769;DHT22;23049;54.304;8.826;2023-04-21T12:39:30;16.60;99.90
32769;DHT22;23049;54.304;8.826;2023-04-21T12:41:56;16.60;99.90
32769;DHT22;23049;54.304;8.826;2023-04-21T12:44:22;16.90;99.90
32769;DHT22;23049;54.304;8.826;2023-04-21T12:46:47;17.00;99.90
32769;DHT22;23049;54.304;8.826;2023-04-21T12:49:13;17.10;99.90
32769;DHT22;23049;54.304;8.826;2023-04-21T12:51:40;16.90;99.90
32769;DHT22;23049;54.304;8.826;2023-04-21T12:54:05;16.80;99.90
32769;DHT22;23049;54.304;8.826;2023-04-21T12:56:31;16.80;99.90
32769;DHT22;23049;54.304;8.826;2023-04-21T12:58:56;17.10;99.90
32769;DHT22;23049;54.304;8.826;2023-04-21T13:01:22;17.00;99.90
32769;DHT22;23049;54.304;8.826;2023-04-21T13:03:48;17.10;99.90
32769;DHT22;23049;54.304;8.826;2023-04-21T13:06:14;17.00;99.90
32769;DHT22;23049;54.304;8.826;2023-04-21T13:08:39;17.20;99.90
32769;DHT22;23049;54.304;8.826;2023-04-21T13:11:05;17.00;99.90
32769;DHT22;23049;54.304;8.826;2023-04-21T13:13:30;17.10;99.90
32769;DHT22;23049;54.304;8.826;2023-04-21T13:15:56;17.20;99.90
32769;DHT22;23049;54.304;8.826;2023-04-21T13:18:21;17.20;99.90
32769;DHT22;23049;54.304;8.826;2023-04-21T13:20:47;17.10;99.90
32769;DHT22;23049;54.304;8.826;2023-04-21T13:23:12;17.10;99.90
32769;DHT22;23049;54.304;8.826;2023-04-21T13:25:39;17.10;99.90
32769;DHT22;23049;54.304;8.826;2023-04-21T13:28:05;17.10;99.90
32769;DHT22;23049;54.304;8.826;2023-04-21T13:30:32;17.10;99.90
32769;DHT22;23049;54.304;8.826;2023-04-21T13:32:57;17.00;99.90
32769;DHT22;23049;54.304;8.826;2023-04-21T13:35:23;16.80;99.90
32769;DHT22;23049;54.304;8.826;2023-04-21T13:37:48;17.10;99.90
32769;DHT22;23049;54.304;8.826;2023-04-21T13:40:14;17.10;99.90
32769;DHT22;23049;54.304;8.826;2023-04-21T13:42:40;17.00;99.90
32769;DHT22;23049;54.304;8.826;2023-04-21T13:45:05;16.90;99.90
32769;DHT22;23049;54.304;8.826;2023-04-21T13:47:31;16.90;99.90
32769;DHT22;23049;54.304;8.826;2023-04-21T13:49:57;17.00;99.90
32769;DHT22;23049;54.304;8.826;2023-04-21T13:52:23;16.90;99.90
32769;DHT22;23049;54.304;8.826;2023-04-21T13:54:49;17.00;99.90
32769;DHT22;23049;54.304;8.826;2023-04-21T13:57:14;17.00;99.90
32769;DHT22;23049;54.304;8.826;2023-04-21T13:59:40;17.00;99.90
32769;DHT22;23049;54.304;8.826;2023-04-21T14:02:06;17.10;99.90
32769;DHT22;23049;54.304;8.826;2023-04-21T14:04:31;17.00;99.90
32769;DHT22;23049;54.304;8.826;2023-04-21T14:06:57;17.00;99.90
32769;DHT22;23049;54.304;8.826;2023-04-21T14:09:22;16.90;99.90
32769;DHT22;23049;54.304;8.826;2023-04-21T14:11:49;16.80;99.90
32769;DHT22;23049;54.304;8.826;2023-04-21T14:14:15;16.90;99.90
32769;DHT22;23049;54.304;8.826;2023-04-21T14:16:41;16.90;99.90
32769;DHT22;23049;54.304;8.826;2023-04-21T14:19:06;16.70;99.90
32769;DHT22;23049;54.304;8.826;2023-04-21T14:21:32;16.80;99.90
32769;DHT22;23049;54.304;8.826;2023-04-21T14:23:57;16.70;99.90
32769;DHT22;23049;54.304;8.826;2023-04-21T14:26:23;16.90;99.90
32769;DHT22;23049;54.304;8.826;2023-04-21T14:28:48;16.80;99.90
32769;DHT22;23049;54.304;8.826;2023-04-21T14:31:15;16.90;99.90
32769;DHT22;23049;54.304;8.826;2023-04-21T14:33:40;16.80;99.90
32769;DHT22;23049;54.304;8.826;2023-04-21T14:36:06;16.90;99.90
32769;DHT22;23049;54.304;8.826;2023-04-21T14:38:32;16.80;99.90
32769;DHT22;23049;54.304;8.826;2023-04-21T14:40:57;16.80;99.90
32769;DHT22;23049;54.304;8.826;2023-04-21T14:43:23;16.60;99.90
32769;DHT22;23049;54.304;8.826;2023-04-21T14:45:48;16.80;99.90
32769;DHT22;23049;54.304;8.826;2023-04-21T14:48:14;16.60;99.90
32769;DHT22;23049;54.304;8.826;2023-04-21T14:50:40;16.50;99.90
32769;DHT22;23049;54.304;8.826;2023-04-21T14:53:05;16.40;99.90
32769;DHT22;23049;54.304;8.826;2023-04-21T14:55:31;16.60;99.90
32769;DHT22;23049;54.304;8.826;2023-04-21T14:57:57;16.50;99.90
32769;DHT22;23049;54.304;8.826;2023-04-21T15:00:22;16.50;99.90
32769;DHT22;23049;54.304;8.826;2023-04-21T15:02:48;16.40;99.90
32769;DHT22;23049;54.304;8.826;2023-04-21T15:05:13;16.40;99.90
32769;DHT22;23049;54.304;8.826;2023-04-21T15:07:39;16.40;99.90
32769;DHT22;23049;54.304;8.826;2023-04-21T15:10:06;16.50;99.90
32769;DHT22;23049;54.304;8.826;2023-04-21T15:12:31;16.40;99.90
32769;DHT22;23049;54.304;8.826;2023-04-21T15:14:57;16.50;99.90
32769;DHT22;23049;54.304;8.826;2023-04-21T15:17:22;16.50;99.90
32769;DHT22;23049;54.304;8.826;2023-04-21T15:19:48;16.50;99.90
32769;DHT22;23049;54.304;8.826;2023-04-21T15:22:14;16.60;99.90
32769;DHT22;23049;54.304;8.826;2023-04-21T15:24:39;16.60;99.90
32769;DHT22;23049;54.304;8.826;2023-04-21T15:27:05;16.50;99.90
32769;DHT22;23049;54.304;8.826;2023-04-21T15:29:30;16.40;99.90
32769;DHT22;23049;54.304;8.826;2023-04-21T15:31:56;16.40;99.90
32769;DHT22;23049;54.304;8.826;2023-04-21T15:34:21;16.40;99.90
32769;DHT22;23049;54.304;8.826;2023-04-21T15:36:47;16.30;99.90
32769;DHT22;23049;54.304;8.826;2023-04-21T15:39:12;16.30;99.90
32769;DHT22;23049;54.304;8.826;2023-04-21T15:41:38;16.20;99.90
32769;DHT22;23049;54.304;8.826;2023-04-21T15:44:04;16.10;99.90
32769;DHT22;23049;54.304;8.826;2023-04-21T15:46:29;16.10;99.90
32769;DHT22;23049;54.304;8.826;2023-04-21T15:48:55;16.10;99.90
32769;DHT22;23049;54.304;8.826;2023-04-21T15:51:21;16.00;99.90
32769;DHT22;23049;54.304;8.826;2023-04-21T15:53:47;16.00;99.90
32769;DHT22;23049;54.304;8.826;2023-04-21T15:56:15;15.90;99.90
32769;DHT22;23049;54.304;8.826;2023-04-21T15:58:41;16.00;99.90
32769;DHT22;23049;54.304;8.826;2023-04-21T16:01:07;15.90;99.90
32769;DHT22;23049;54.304;8.826;2023-04-21T16:03:33;15.90;99.90
32769;DHT22;23049;54.304;8.826;2023-04-21T16:05:58;15.80;99.90
32769;DHT22;23049;54.304;8.826;2023-04-21T16:08:24;15.70;99.90
32769;DHT22;23049;54.304;8.826;2023-04-21T16:10:50;15.60;99.90
32769;DHT22;23049;54.304;8.826;2023-04-21T16:13:16;15.60;99.90
32769;DHT22;23049;54.304;8.826;2023-04-21T16:15:41;15.50;99.90
32769;DHT22;23049;54.304;8.826;2023-04-21T16:18:07;15.50;99.90
32769;DHT22;23049;54.304;8.826;2023-04-21T16:20:33;15.50;99.90
32769;DHT22;23049;54.304;8.826;2023-04-21T16:22:58;15.40;99.90
32769;DHT22;23049;54.304;8.826;2023-04-21T16:25:24;15.40;99.90
32769;DHT22;23049;54.304;8.826;2023-04-21T16:27:51;15.30;99.90
32769;DHT22;23049;54.304;8.826;2023-04-21T16:30:17;15.30;99.90
32769;DHT22;23049;54.304;8.826;2023-04-21T16:32:42;15.20;99.90
32769;DHT22;23049;54.304;8.826;2023-04-21T16:35:08;15.10;99.90
32769;DHT22;23049;54.304;8.826;2023-04-21T16:37:34;15.10;99.90
32769;DHT22;23049;54.304;8.826;2023-04-21T16:40:07;15.00;99.90